Back to Top

Language: 

My Weather Underground Personal Weather Station Historical Data with Graphs...

Delerius Weather Station Historical Data
Daily Summary for February 7, 2018 Units:  Metric    English   Both
« Previous Day
Next Day »
Daily Weekly Monthly Yearly Custom
  High: Low: Average:
Temperature: 4.9 °C -2.4 °C 0.9 °C
Dew Point: -1.3 °C -4.9 °C -3.1 °C
Humidity: 86 % 54 % 75 %
Wind Speed: 14.5 km/h 0 km/h 6 km/h
Wind Gust: 20.9 km/h - -
Wind:- - WNW
Pressure: 1022.2 hPa 1017.8 hPa -
Precipitation: 0 mm    
Historical Graphs
 
 
Tabular Data for February 7, 2018
Time Temperature Dew Point Pressure Wind Wind Speed Wind Gust Humidity Rainfall Rate (Hourly) solar Conditions
00:02 0.2 °C -2.5 °C 1019.5 hPa WNW 11.3 km/h 17.7 km/h 82 % 0 mm 0 W/m2
00:07 0.2 °C -2.5 °C 1019.5 hPa WNW 11.3 km/h 16.1 km/h 82 % 0 mm 0 W/m2
00:12 0.2 °C -2.5 °C 1019.5 hPa WNW 8 km/h 14.5 km/h 82 % 0 mm 0 W/m2
00:17 0.1 °C -2.8 °C 1019.5 hPa WNW 9.7 km/h 14.5 km/h 81 % 0 mm 0 W/m2
00:22 0.1 °C -2.8 °C 1019.5 hPa WNW 9.7 km/h 17.7 km/h 81 % 0 mm 0 W/m2
00:27 0.1 °C -2.8 °C 1019.5 hPa WNW 8 km/h 16.1 km/h 81 % 0 mm 0 W/m2
00:32 0 °C -2.9 °C 1019.5 hPa WNW 6.4 km/h 11.3 km/h 81 % 0 mm 0 W/m2
00:37 -0.1 °C -2.9 °C 1019.5 hPa NW 6.4 km/h 14.5 km/h 81 % 0 mm 0 W/m2
00:42 -0.2 °C -3.1 °C 1019.5 hPa WNW 6.4 km/h 16.1 km/h 81 % 0 mm 0 W/m2
00:47 -0.2 °C -3.1 °C 1019.9 hPa WNW 9.7 km/h 16.1 km/h 81 % 0 mm 0 W/m2
00:52 -0.2 °C -3.1 °C 1019.9 hPa WNW 8 km/h 14.5 km/h 81 % 0 mm 0 W/m2
00:57 -0.3 °C -3.2 °C 1019.9 hPa WNW 6.4 km/h 11.3 km/h 81 % 0 mm 0 W/m2
01:02 -0.3 °C -3.2 °C 1019.9 hPa WNW 8 km/h 14.5 km/h 81 % 0 mm 0 W/m2
01:07 -0.3 °C -3.2 °C 1019.9 hPa NW 8 km/h 12.9 km/h 81 % 0 mm 0 W/m2
01:12 -0.4 °C -3.3 °C 1019.9 hPa NW 8 km/h 12.9 km/h 81 % 0 mm 0 W/m2
01:17 -0.4 °C -3.3 °C 1019.9 hPa NW 11.3 km/h 16.1 km/h 81 % 0 mm 0 W/m2
01:22 -0.4 °C -3.3 °C 1019.9 hPa WNW 6.4 km/h 11.3 km/h 81 % 0 mm 0 W/m2
01:27 -0.4 °C -3.3 °C 1019.9 hPa NW 9.7 km/h 16.1 km/h 81 % 0 mm 0 W/m2
01:32 -0.4 °C -3.3 °C 1019.9 hPa WNW 9.7 km/h 16.1 km/h 81 % 0 mm 0 W/m2
01:37 -0.3 °C -3.3 °C 1019.9 hPa WNW 8 km/h 12.9 km/h 80 % 0 mm 0 W/m2
01:42 -0.3 °C -3.3 °C 1019.9 hPa NW 8 km/h 12.9 km/h 80 % 0 mm 0 W/m2
01:47 -0.3 °C -3.3 °C 1019.9 hPa NW 9.7 km/h 14.5 km/h 80 % 0 mm 0 W/m2
01:52 -0.3 °C -3.3 °C 1019.9 hPa NW 9.7 km/h 16.1 km/h 80 % 0 mm 0 W/m2
01:57 -0.3 °C -3.3 °C 1019.9 hPa WNW 9.7 km/h 14.5 km/h 80 % 0 mm 0 W/m2
02:02 -0.3 °C -3.3 °C 1019.9 hPa NW 8 km/h 14.5 km/h 80 % 0 mm 0 W/m2
02:07 -0.3 °C -3.3 °C 1019.9 hPa WNW 11.3 km/h 17.7 km/h 80 % 0 mm 0 W/m2
02:12 -0.3 °C -3.3 °C 1019.9 hPa NW 8 km/h 14.5 km/h 80 % 0 mm 0 W/m2
02:17 -0.3 °C -3.3 °C 1019.9 hPa WNW 9.7 km/h 17.7 km/h 80 % 0 mm 0 W/m2
02:22 -0.3 °C -3.3 °C 1019.9 hPa WNW 8 km/h 11.3 km/h 80 % 0 mm 0 W/m2
02:27 -0.3 °C -3.3 °C 1019.9 hPa NW 9.7 km/h 14.5 km/h 80 % 0 mm 0 W/m2
02:32 -0.3 °C -3.3 °C 1019.9 hPa WNW 8 km/h 12.9 km/h 80 % 0 mm 0 W/m2
02:37 -0.3 °C -3.3 °C 1019.9 hPa WNW 4.8 km/h 11.3 km/h 80 % 0 mm 0 W/m2
02:42 -0.3 °C -3.3 °C 1019.9 hPa WNW 6.4 km/h 11.3 km/h 80 % 0 mm 0 W/m2
02:47 -0.3 °C -3.3 °C 1019.9 hPa WNW 6.4 km/h 11.3 km/h 80 % 0 mm 0 W/m2
02:52 -0.4 °C -3.4 °C 1019.9 hPa NW 4.8 km/h 11.3 km/h 80 % 0 mm 0 W/m2
02:57 -0.4 °C -3.4 °C 1019.9 hPa WNW 8 km/h 12.9 km/h 80 % 0 mm 0 W/m2
03:02 -0.4 °C -3.4 °C 1019.9 hPa WNW 8 km/h 12.9 km/h 80 % 0 mm 0 W/m2
03:07 -0.4 °C -3.4 °C 1019.9 hPa WNW 8 km/h 14.5 km/h 80 % 0 mm 0 W/m2
03:12 -0.4 °C -3.4 °C 1019.9 hPa WNW 9.7 km/h 14.5 km/h 80 % 0 mm 0 W/m2
03:17 -0.4 °C -3.4 °C 1019.9 hPa WNW 9.7 km/h 17.7 km/h 80 % 0 mm 0 W/m2
03:22 -0.4 °C -3.6 °C 1019.9 hPa NW 9.7 km/h 16.1 km/h 79 % 0 mm 0 W/m2
03:27 -0.4 °C -3.6 °C 1019.9 hPa NW 9.7 km/h 17.7 km/h 79 % 0 mm 0 W/m2
03:32 -0.4 °C -3.6 °C 1019.9 hPa WNW 9.7 km/h 14.5 km/h 79 % 0 mm 0 W/m2
03:33 -0.4 °C -3.6 °C 1019.9 hPa WNW 9.7 km/h 14.5 km/h 79 % 0 mm 0 W/m2
03:38 -0.4 °C -3.6 °C 1019.9 hPa WNW 9.7 km/h 16.1 km/h 79 % 0 mm 0 W/m2
03:43 -0.4 °C -3.6 °C 1019.9 hPa NW 6.4 km/h 12.9 km/h 79 % 0 mm 0 W/m2
03:48 -0.4 °C -3.6 °C 1019.9 hPa WNW 9.7 km/h 14.5 km/h 79 % 0 mm 0 W/m2
03:53 -0.4 °C -3.6 °C 1019.9 hPa NW 8 km/h 12.9 km/h 79 % 0 mm 0 W/m2
03:58 -0.4 °C -3.6 °C 1019.9 hPa NW 9.7 km/h 17.7 km/h 79 % 0 mm 0 W/m2
04:03 -0.5 °C -3.9 °C 1019.9 hPa NW 9.7 km/h 14.5 km/h 78 % 0 mm 0 W/m2
04:08 -0.5 °C -3.9 °C 1019.9 hPa NW 11.3 km/h 17.7 km/h 78 % 0 mm 0 W/m2
04:13 -0.5 °C -3.9 °C 1019.9 hPa NW 6.4 km/h 11.3 km/h 78 % 0 mm 0 W/m2
04:18 -0.6 °C -3.9 °C 1019.9 hPa NW 9.7 km/h 16.1 km/h 78 % 0 mm 0 W/m2
04:23 -0.6 °C -3.9 °C 1019.9 hPa NW 9.7 km/h 16.1 km/h 78 % 0 mm 0 W/m2
04:28 -0.7 °C -4.1 °C 1019.9 hPa NW 9.7 km/h 16.1 km/h 78 % 0 mm 0 W/m2
04:33 -0.7 °C -4.1 °C 1019.9 hPa NW 6.4 km/h 12.9 km/h 78 % 0 mm 0 W/m2
04:38 -0.8 °C -4.2 °C 1019.9 hPa NW 8 km/h 14.5 km/h 78 % 0 mm 0 W/m2
04:43 -0.8 °C -4.2 °C 1019.9 hPa NW 9.7 km/h 12.9 km/h 78 % 0 mm 0 W/m2
04:48 -0.9 °C -4.3 °C 1019.9 hPa NW 6.4 km/h 12.9 km/h 78 % 0 mm 0 W/m2
04:53 -1 °C -4.3 °C 1019.9 hPa NW 6.4 km/h 11.3 km/h 78 % 0 mm 0 W/m2
04:58 -1 °C -4.3 °C 1019.9 hPa NW 9.7 km/h 16.1 km/h 78 % 0 mm 0 W/m2
05:03 -1.1 °C -4.4 °C 1019.9 hPa NW 9.7 km/h 16.1 km/h 78 % 0 mm 0 W/m2
05:08 -1.1 °C -4.3 °C 1019.9 hPa NW 8 km/h 12.9 km/h 79 % 0 mm 0 W/m2
05:13 -1.2 °C -4.4 °C 1019.9 hPa NW 8 km/h 16.1 km/h 79 % 0 mm 0 W/m2
05:18 -1.2 °C -4.4 °C 1019.9 hPa NW 9.7 km/h 12.9 km/h 79 % 0 mm 0 W/m2
05:23 -1.3 °C -4.5 °C 1020.2 hPa NW 8 km/h 16.1 km/h 79 % 0 mm 0 W/m2
05:28 -1.3 °C -4.5 °C 1020.2 hPa NW 11.3 km/h 19.3 km/h 79 % 0 mm 0 W/m2
05:33 -1.4 °C -4.6 °C 1020.2 hPa NW 8 km/h 14.5 km/h 79 % 0 mm 0 W/m2
05:38 -1.4 °C -4.4 °C 1020.2 hPa NW 8 km/h 12.9 km/h 80 % 0 mm 0 W/m2
05:43 -1.4 °C -4.4 °C 1020.2 hPa NW 8 km/h 12.9 km/h 80 % 0 mm 0 W/m2
05:48 -1.5 °C -4.5 °C 1020.2 hPa NW 9.7 km/h 17.7 km/h 80 % 0 mm 0 W/m2
05:53 -1.5 °C -4.5 °C 1020.2 hPa NW 9.7 km/h 16.1 km/h 80 % 0 mm 0 W/m2
05:58 -1.6 °C -4.6 °C 1020.2 hPa NW 9.7 km/h 14.5 km/h 80 % 0 mm 0 W/m2
06:03 -1.6 °C -4.6 °C 1020.2 hPa WNW 9.7 km/h 12.9 km/h 80 % 0 mm 0 W/m2
06:08 -1.7 °C -4.7 °C 1020.2 hPa WNW 8 km/h 14.5 km/h 80 % 0 mm 0 W/m2
06:13 -1.7 °C -4.6 °C 1020.5 hPa WNW 11.3 km/h 14.5 km/h 81 % 0 mm 0 W/m2
06:18 -1.7 °C -4.6 °C 1020.5 hPa WNW 9.7 km/h 19.3 km/h 81 % 0 mm 0 W/m2
06:24 -1.7 °C -4.6 °C 1020.5 hPa NW 8 km/h 14.5 km/h 81 % 0 mm 0 W/m2
06:29 -1.7 °C -4.6 °C 1020.5 hPa NW 4.8 km/h 9.7 km/h 81 % 0 mm 0 W/m2
06:34 -1.8 °C -4.6 °C 1020.2 hPa WNW 4.8 km/h 9.7 km/h 81 % 0 mm 0 W/m2
06:38 -1.8 °C -4.6 °C 1020.2 hPa NW 6.4 km/h 9.7 km/h 81 % 0 mm 0 W/m2
06:44 -1.8 °C -4.6 °C 1020.5 hPa WNW 6.4 km/h 11.3 km/h 81 % 0 mm 0 W/m2
06:49 -1.9 °C -4.7 °C 1020.5 hPa WNW 4.8 km/h 8 km/h 81 % 0 mm 0 W/m2
06:54 -1.9 °C -4.7 °C 1020.5 hPa WNW 4.8 km/h 8 km/h 81 % 0 mm 0 W/m2
06:59 -2 °C -4.7 °C 1020.5 hPa WNW 8 km/h 11.3 km/h 82 % 0 mm 0 W/m2
07:04 -2.1 °C -4.8 °C 1020.5 hPa WNW 4.8 km/h 11.3 km/h 82 % 0 mm 0 W/m2
07:09 -2.1 °C -4.8 °C 1020.5 hPa WNW 6.4 km/h 9.7 km/h 82 % 0 mm 0 W/m2
07:14 -2.2 °C -4.8 °C 1020.9 hPa WNW 1.6 km/h 6.4 km/h 82 % 0 mm 0 W/m2
07:19 -2.2 °C -4.8 °C 1020.5 hPa WNW 4.8 km/h 8 km/h 82 % 0 mm 0 W/m2
07:24 -2.3 °C -4.9 °C 1020.5 hPa WNW 3.2 km/h 8 km/h 82 % 0 mm 0 W/m2
07:29 -2.3 °C -4.8 °C 1020.5 hPa WNW 4.8 km/h 9.7 km/h 83 % 0 mm 0 W/m2
07:34 -2.4 °C -4.9 °C 1020.9 hPa WNW 4.8 km/h 9.7 km/h 83 % 0 mm 0 W/m2
07:39 -2.4 °C -4.9 °C 1020.9 hPa WNW 6.4 km/h 11.3 km/h 83 % 0 mm 5 W/m2
07:44 -2.4 °C -4.9 °C 1020.9 hPa WNW 6.4 km/h 9.7 km/h 83 % 0 mm 5 W/m2
07:49 -2.4 °C -4.7 °C 1020.9 hPa NW 6.4 km/h 12.9 km/h 84 % 0 mm 7 W/m2
07:54 -2.4 °C -4.9 °C 1021.2 hPa NW 6.4 km/h 12.9 km/h 83 % 0 mm 9 W/m2
07:59 -2.4 °C -4.7 °C 1021.2 hPa WNW 8 km/h 12.9 km/h 84 % 0 mm 11 W/m2
08:04 -2.4 °C -4.7 °C 1021.2 hPa WNW 6.4 km/h 11.3 km/h 84 % 0 mm 12 W/m2
08:09 -2.4 °C -4.7 °C 1021.2 hPa NW 6.4 km/h 9.7 km/h 84 % 0 mm 14 W/m2
08:14 -2.4 °C -4.9 °C 1021.2 hPa WNW 6.4 km/h 9.7 km/h 83 % 0 mm 18 W/m2
08:19 -2.3 °C -4.8 °C 1021.2 hPa WNW 6.4 km/h 11.3 km/h 83 % 0 mm 19 W/m2
08:24 -2.2 °C -4.7 °C 1021.2 hPa WNW 6.4 km/h 12.9 km/h 83 % 0 mm 21 W/m2
08:29 -2.1 °C -4.4 °C 1021.2 hPa NW 4.8 km/h 11.3 km/h 84 % 0 mm 23 W/m2
08:34 -2 °C -4.5 °C 1021.6 hPa WNW 8 km/h 11.3 km/h 83 % 0 mm 25 W/m2
08:39 -1.9 °C -4.4 °C 1021.6 hPa WNW 6.4 km/h 11.3 km/h 83 % 0 mm 25 W/m2
08:44 -1.7 °C -4.2 °C 1021.2 hPa WNW 4.8 km/h 9.7 km/h 83 % 0 mm 26 W/m2
08:49 -1.6 °C -4.1 °C 1021.6 hPa WNW 8 km/h 11.3 km/h 83 % 0 mm 28 W/m2
08:54 -1.4 °C -4.1 °C 1021.6 hPa WNW 6.4 km/h 11.3 km/h 82 % 0 mm 56 W/m2
08:59 -1.3 °C -4 °C 1021.2 hPa WNW 4.8 km/h 9.7 km/h 82 % 0 mm 155 W/m2
09:04 -1.1 °C -3.9 °C 1021.6 hPa NW 6.4 km/h 9.7 km/h 81 % 0 mm 171 W/m2
09:09 -1 °C -3.8 °C 1021.6 hPa WNW 6.4 km/h 14.5 km/h 81 % 0 mm 181 W/m2
09:14 -0.8 °C -3.8 °C 1021.6 hPa WNW 9.7 km/h 16.1 km/h 80 % 0 mm 192 W/m2
09:19 -0.6 °C -3.8 °C 1021.6 hPa WNW 9.7 km/h 14.5 km/h 79 % 0 mm 204 W/m2
09:24 -0.4 °C -3.8 °C 1021.6 hPa WNW 8 km/h 12.9 km/h 78 % 0 mm 213 W/m2
09:29 -0.2 °C -3.7 °C 1021.6 hPa NW 6.4 km/h 16.1 km/h 77 % 0 mm 223 W/m2
09:34 0.2 °C -3.6 °C 1021.6 hPa NW 6.4 km/h 12.9 km/h 76 % 0 mm 234 W/m2
09:39 0.5 °C -3.4 °C 1021.6 hPa NW 8 km/h 14.5 km/h 75 % 0 mm 244 W/m2
09:44 0.8 °C -3.3 °C 1021.6 hPa NW 8 km/h 12.9 km/h 74 % 0 mm 253 W/m2
09:49 1.1 °C -3 °C 1021.6 hPa NW 4.8 km/h 9.7 km/h 74 % 0 mm 262 W/m2
09:54 1.3 °C -3.2 °C 1021.9 hPa NW 8 km/h 11.3 km/h 72 % 0 mm 272 W/m2
09:59 1.4 °C -3.3 °C 1021.9 hPa NW 9.7 km/h 14.5 km/h 71 % 0 mm 283 W/m2
10:04 1.6 °C -3.1 °C 1021.9 hPa NW 6.4 km/h 16.1 km/h 71 % 0 mm 290 W/m2
10:09 1.8 °C -3.1 °C 1021.9 hPa NW 8 km/h 14.5 km/h 70 % 0 mm 299 W/m2
10:14 1.9 °C -3 °C 1021.9 hPa NW 9.7 km/h 17.7 km/h 70 % 0 mm 308 W/m2
10:19 2 °C -3.1 °C 1021.9 hPa NW 11.3 km/h 16.1 km/h 69 % 0 mm 316 W/m2
10:24 2.1 °C -3 °C 1022.2 hPa NW 9.7 km/h 16.1 km/h 69 % 0 mm 323 W/m2
10:29 2.2 °C -2.9 °C 1021.9 hPa NW 8 km/h 16.1 km/h 69 % 0 mm 329 W/m2
10:34 2.2 °C -3.1 °C 1021.9 hPa NW 11.3 km/h 19.3 km/h 68 % 0 mm 336 W/m2
10:40 2.2 °C -3.1 °C 1021.9 hPa NW 9.7 km/h 14.5 km/h 68 % 0 mm 345 W/m2
10:45 2.3 °C -3.2 °C 1021.9 hPa NW 9.7 km/h 14.5 km/h 67 % 0 mm 352 W/m2
10:50 2.4 °C -3.1 °C 1021.9 hPa NNW 6.4 km/h 11.3 km/h 67 % 0 mm 359 W/m2
10:55 2.6 °C -2.9 °C 1021.9 hPa NW 8 km/h 12.9 km/h 67 % 0 mm 366 W/m2
11:00 2.8 °C -2.9 °C 1021.9 hPa NW 9.7 km/h 14.5 km/h 66 % 0 mm 369 W/m2
11:04 2.8 °C -3.1 °C 1021.9 hPa NNW 8 km/h 11.3 km/h 65 % 0 mm 376 W/m2
11:10 2.8 °C -2.9 °C 1021.9 hPa NW 9.7 km/h 14.5 km/h 66 % 0 mm 381 W/m2
11:15 3.1 °C -2.8 °C 1021.9 hPa NW 6.4 km/h 11.3 km/h 65 % 0 mm 385 W/m2
11:20 3.2 °C -2.8 °C 1021.9 hPa NW 4.8 km/h 9.7 km/h 65 % 0 mm 392 W/m2
11:25 3.3 °C -2.7 °C 1021.6 hPa NW 4.8 km/h 9.7 km/h 65 % 0 mm 394 W/m2
11:30 3.5 °C -2.7 °C 1021.6 hPa NW 6.4 km/h 12.9 km/h 64 % 0 mm 397 W/m2
11:35 3.7 °C -2.7 °C 1021.6 hPa NW 9.7 km/h 12.9 km/h 63 % 0 mm 403 W/m2
11:40 3.7 °C -2.7 °C 1021.6 hPa NW 6.4 km/h 11.3 km/h 63 % 0 mm 404 W/m2
11:45 3.8 °C -2.6 °C 1021.6 hPa NNW 4.8 km/h 8 km/h 63 % 0 mm 410 W/m2
11:50 3.7 °C -2.9 °C 1021.6 hPa NW 6.4 km/h 11.3 km/h 62 % 0 mm 410 W/m2
11:55 3.8 °C -2.6 °C 1021.6 hPa NNW 6.4 km/h 12.9 km/h 63 % 0 mm 415 W/m2
12:00 3.7 °C -2.9 °C 1021.6 hPa NNW 9.7 km/h 12.9 km/h 62 % 0 mm 413 W/m2
12:05 3.6 °C -2.8 °C 1021.6 hPa NW 6.4 km/h 11.3 km/h 63 % 0 mm 411 W/m2
12:10 3.7 °C -2.7 °C 1021.6 hPa WNW 4.8 km/h 12.9 km/h 63 % 0 mm 411 W/m2
12:15 3.9 °C -2.9 °C 1021.6 hPa WNW 9.7 km/h 14.5 km/h 61 % 0 mm 413 W/m2
12:20 4.1 °C -3 °C 1021.6 hPa West 6.4 km/h 11.3 km/h 60 % 0 mm 415 W/m2
12:25 4.2 °C -3.1 °C 1021.6 hPa NW 8 km/h 14.5 km/h 59 % 0 mm 413 W/m2
12:30 4.2 °C -3.1 °C 1021.6 hPa NW 8 km/h 11.3 km/h 59 % 0 mm 413 W/m2
12:35 4.3 °C -3.2 °C 1021.6 hPa WNW 6.4 km/h 12.9 km/h 58 % 0 mm 411 W/m2
12:40 4.4 °C -2.9 °C 1021.2 hPa West 9.7 km/h 14.5 km/h 59 % 0 mm 413 W/m2
12:45 4.5 °C -3.1 °C 1021.2 hPa WNW 11.3 km/h 19.3 km/h 58 % 0 mm 410 W/m2
12:50 4.5 °C -3.1 °C 1021.2 hPa NW 9.7 km/h 17.7 km/h 58 % 0 mm 410 W/m2
12:55 4.5 °C -3.3 °C 1021.2 hPa WNW 6.4 km/h 9.7 km/h 57 % 0 mm 410 W/m2
13:00 4.7 °C -2.9 °C 1021.2 hPa WNW 4.8 km/h 14.5 km/h 58 % 0 mm 413 W/m2
13:05 4.8 °C -3 °C 1020.9 hPa West 8 km/h 12.9 km/h 57 % 0 mm 420 W/m2
13:10 4.9 °C -2.9 °C 1020.9 hPa WNW 9.7 km/h 12.9 km/h 57 % 0 mm 369 W/m2
13:15 4.9 °C -3.2 °C 1020.9 hPa West 8 km/h 12.9 km/h 56 % 0 mm 323 W/m2
13:20 4.9 °C -3.2 °C 1020.9 hPa WNW 8 km/h 12.9 km/h 56 % 0 mm 369 W/m2
13:25 4.9 °C -3.4 °C 1020.9 hPa West 9.7 km/h 14.5 km/h 55 % 0 mm 374 W/m2
13:30 4.9 °C -3.4 °C 1020.9 hPa WNW 11.3 km/h 14.5 km/h 55 % 0 mm 388 W/m2
13:35 4.8 °C -3.7 °C 1020.9 hPa West 9.7 km/h 16.1 km/h 54 % 0 mm 387 W/m2
13:40 4.8 °C -3.5 °C 1020.9 hPa West 9.7 km/h 17.7 km/h 55 % 0 mm 374 W/m2
13:45 4.7 °C -3.3 °C 1020.9 hPa West 12.9 km/h 19.3 km/h 56 % 0 mm 355 W/m2
13:50 4.7 °C -2.9 °C 1020.5 hPa WNW 11.3 km/h 16.1 km/h 58 % 0 mm 352 W/m2
13:55 4.6 °C -2.9 °C 1020.9 hPa West 12.9 km/h 19.3 km/h 58 % 0 mm 302 W/m2
14:05 4.5 °C -3.3 °C 1020.5 hPa WNW 8 km/h 14.5 km/h 57 % 0 mm 325 W/m2
14:10 4.6 °C -3.2 °C 1020.5 hPa WNW 11.3 km/h 20.9 km/h 57 % 0 mm 285 W/m2
14:15 4.5 °C -2.8 °C 1020.5 hPa West 11.3 km/h 14.5 km/h 59 % 0 mm 149 W/m2
14:20 4.2 °C -3.3 °C 1020.5 hPa WNW 12.9 km/h 17.7 km/h 58 % 0 mm 169 W/m2
14:25 4 °C -3.6 °C 1020.5 hPa WNW 14.5 km/h 19.3 km/h 58 % 0 mm 262 W/m2
14:30 4.1 °C -3.2 °C 1020.5 hPa West 8 km/h 16.1 km/h 59 % 0 mm 290 W/m2
14:35 4.1 °C -3.2 °C 1020.9 hPa NW 11.3 km/h 16.1 km/h 59 % 0 mm 272 W/m2
14:40 4.2 °C -2.9 °C 1020.5 hPa West 11.3 km/h 14.5 km/h 60 % 0 mm 272 W/m2
14:45 4.3 °C -2.6 °C 1020.5 hPa WNW 9.7 km/h 17.7 km/h 61 % 0 mm 258 W/m2
14:51 4.3 °C -2.8 °C 1020.5 hPa WNW 9.7 km/h 16.1 km/h 60 % 0 mm 260 W/m2
14:56 4.4 °C -3.2 °C 1020.5 hPa WNW 11.3 km/h 17.7 km/h 58 % 0 mm 274 W/m2
15:01 4.3 °C -3 °C 1020.2 hPa WNW 11.3 km/h 14.5 km/h 59 % 0 mm 116 W/m2
15:06 4.2 °C -3.3 °C 1020.2 hPa WNW 8 km/h 12.9 km/h 58 % 0 mm 121 W/m2
15:11 3.9 °C -3.4 °C 1020.2 hPa West 9.7 km/h 12.9 km/h 59 % 0 mm 118 W/m2
15:16 3.8 °C -3.1 °C 1020.2 hPa WNW 11.3 km/h 16.1 km/h 61 % 0 mm 107 W/m2
15:21 3.7 °C -2.7 °C 1020.2 hPa West 8 km/h 14.5 km/h 63 % 0 mm 91 W/m2
15:26 3.5 °C -2.9 °C 1020.2 hPa WSW 9.7 km/h 14.5 km/h 63 % 0 mm 93 W/m2
15:31 3.3 °C -2.9 °C 1020.2 hPa WSW 11.3 km/h 14.5 km/h 64 % 0 mm 91 W/m2
15:36 3.2 °C -2.9 °C 1020.2 hPa West 9.7 km/h 16.1 km/h 64 % 0 mm 100 W/m2
15:41 3.2 °C -2.9 °C 1020.2 hPa West 11.3 km/h 17.7 km/h 64 % 0 mm 104 W/m2
15:46 3.1 °C -3.1 °C 1020.2 hPa West 9.7 km/h 14.5 km/h 64 % 0 mm 84 W/m2
15:51 3.1 °C -2.8 °C 1020.2 hPa West 6.4 km/h 11.3 km/h 65 % 0 mm 70 W/m2
15:56 3 °C -2.9 °C 1020.2 hPa West 9.7 km/h 12.9 km/h 65 % 0 mm 62 W/m2
16:01 2.9 °C -3.1 °C 1020.2 hPa WSW 9.7 km/h 16.1 km/h 65 % 0 mm 58 W/m2
16:06 2.8 °C -2.9 °C 1020.2 hPa West 6.4 km/h 11.3 km/h 66 % 0 mm 47 W/m2
16:11 2.8 °C -2.7 °C 1020.2 hPa West 4.8 km/h 9.7 km/h 67 % 0 mm 39 W/m2
16:16 2.7 °C -2.8 °C 1020.2 hPa West 4.8 km/h 9.7 km/h 67 % 0 mm 33 W/m2
16:21 2.7 °C -2.8 °C 1020.2 hPa West 1.6 km/h 4.8 km/h 67 % 0 mm 30 W/m2
16:26 2.6 °C -2.7 °C 1020.2 hPa West 1.6 km/h 3.2 km/h 68 % 0 mm 26 W/m2
16:31 2.6 °C -2.7 °C 1020.2 hPa West 3.2 km/h 8 km/h 68 % 0 mm 21 W/m2
16:36 2.5 °C -2.6 °C 1020.2 hPa WSW 1.6 km/h 6.4 km/h 69 % 0 mm 12 W/m2
16:41 2.5 °C -2.6 °C 1019.9 hPa WSW 1.6 km/h 3.2 km/h 69 % 0 mm 9 W/m2
16:46 2.4 °C -2.7 °C 1020.2 hPa Calm   3.2 km/h 69 % 0 mm 7 W/m2
16:51 2.3 °C -2.6 °C 1020.2 hPa Calm     70 % 0 mm 5 W/m2
16:56 2.3 °C -2.6 °C 1020.2 hPa West 3.2 km/h 8 km/h 70 % 0 mm 5 W/m2
17:01 2.2 °C -2.5 °C 1019.9 hPa West 4.8 km/h 8 km/h 71 % 0 mm 0 W/m2
17:06 2.1 °C -2.4 °C 1019.9 hPa West 4.8 km/h 9.7 km/h 72 % 0 mm 0 W/m2
17:11 2.1 °C -2.4 °C 1019.9 hPa West 3.2 km/h 9.7 km/h 72 % 0 mm 0 W/m2
17:16 2 °C -2.3 °C 1020.2 hPa West 1.6 km/h 3.2 km/h 73 % 0 mm 0 W/m2
17:21 1.9 °C -2.4 °C 1019.9 hPa Calm   6.4 km/h 73 % 0 mm 0 W/m2
17:26 1.8 °C -2.6 °C 1020.2 hPa Calm   3.2 km/h 73 % 0 mm 0 W/m2
17:31 1.7 °C -2.6 °C 1020.2 hPa West 3.2 km/h 6.4 km/h 73 % 0 mm 0 W/m2
17:36 1.7 °C -2.4 °C 1020.2 hPa West 1.6 km/h 6.4 km/h 74 % 0 mm 0 W/m2
17:41 1.6 °C -2.6 °C 1020.2 hPa Calm     74 % 0 mm 0 W/m2
17:46 1.6 °C -2.6 °C 1020.2 hPa Calm   1.6 km/h 74 % 0 mm 0 W/m2
17:51 1.4 °C -2.6 °C 1019.9 hPa Calm   1.6 km/h 75 % 0 mm 0 W/m2
17:57 1.4 °C -2.6 °C 1020.2 hPa WNW 1.6 km/h 9.7 km/h 75 % 0 mm 0 W/m2
18:02 1.4 °C -2.4 °C 1020.2 hPa WNW 4.8 km/h 9.7 km/h 76 % 0 mm 0 W/m2
18:07 1.4 °C -2.2 °C 1019.9 hPa WNW 6.4 km/h 11.3 km/h 77 % 0 mm 0 W/m2
18:12 1.4 °C -2.2 °C 1019.9 hPa WNW 6.4 km/h 9.7 km/h 77 % 0 mm 0 W/m2
18:17 1.4 °C -2.2 °C 1019.9 hPa WNW 6.4 km/h 9.7 km/h 77 % 0 mm 0 W/m2
18:22 1.5 °C -2.1 °C 1019.9 hPa WNW 4.8 km/h 11.3 km/h 77 % 0 mm 0 W/m2
18:27 1.5 °C -1.9 °C 1019.9 hPa WNW 6.4 km/h 9.7 km/h 78 % 0 mm 0 W/m2
18:32 1.5 °C -1.9 °C 1019.9 hPa West 4.8 km/h 9.7 km/h 78 % 0 mm 0 W/m2
18:37 1.5 °C -1.9 °C 1019.9 hPa WNW 4.8 km/h 9.7 km/h 78 % 0 mm 0 W/m2
18:42 1.6 °C -1.8 °C 1019.9 hPa West 1.6 km/h 6.4 km/h 78 % 0 mm 0 W/m2
18:47 1.5 °C -1.9 °C 1019.9 hPa West 1.6 km/h 3.2 km/h 78 % 0 mm 0 W/m2
18:52 1.5 °C -1.9 °C 1019.9 hPa West 1.6 km/h 8 km/h 78 % 0 mm 0 W/m2
18:57 1.5 °C -1.9 °C 1019.9 hPa West 4.8 km/h 8 km/h 78 % 0 mm 0 W/m2
19:02 1.5 °C -1.9 °C 1019.9 hPa WSW 1.6 km/h 6.4 km/h 78 % 0 mm 0 W/m2
19:07 1.5 °C -1.9 °C 1019.9 hPa West 1.6 km/h 4.8 km/h 78 % 0 mm 0 W/m2
19:12 1.5 °C -1.9 °C 1019.9 hPa Calm   4.8 km/h 78 % 0 mm 0 W/m2
19:17 1.5 °C -1.9 °C 1019.9 hPa Calm   3.2 km/h 78 % 0 mm 0 W/m2
19:22 1.4 °C -2 °C 1019.9 hPa West 1.6 km/h 6.4 km/h 78 % 0 mm 0 W/m2
19:27 1.4 °C -2 °C 1019.9 hPa WSW 1.6 km/h 4.8 km/h 78 % 0 mm 0 W/m2
19:32 1.3 °C -2.1 °C 1019.9 hPa Calm   3.2 km/h 78 % 0 mm 0 W/m2
19:37 1.3 °C -2.1 °C 1019.5 hPa Calm   3.2 km/h 78 % 0 mm 0 W/m2
19:42 1.2 °C -2.2 °C 1019.5 hPa Calm     78 % 0 mm 0 W/m2
19:47 1.1 °C -2.3 °C 1019.5 hPa Calm     78 % 0 mm 0 W/m2
19:52 1.1 °C -2.1 °C 1019.5 hPa Calm     79 % 0 mm 0 W/m2
19:57 1 °C -2.2 °C 1019.5 hPa Calm     79 % 0 mm 0 W/m2
20:02 0.9 °C -2.2 °C 1019.5 hPa Calm     80 % 0 mm 0 W/m2
20:07 0.8 °C -2.3 °C 1019.5 hPa Calm   3.2 km/h 80 % 0 mm 0 W/m2
20:12 0.7 °C -2.3 °C 1019.5 hPa Calm   1.6 km/h 80 % 0 mm 0 W/m2
20:17 0.7 °C -2.3 °C 1019.5 hPa Calm     80 % 0 mm 0 W/m2
20:22 0.6 °C -2.3 °C 1019.5 hPa Calm   1.6 km/h 81 % 0 mm 0 W/m2
20:27 0.6 °C -2.1 °C 1019.5 hPa Calm     82 % 0 mm 0 W/m2
20:32 0.6 °C -2.1 °C 1019.5 hPa Calm     82 % 0 mm 0 W/m2
20:37 0.6 °C -2.1 °C 1019.2 hPa SW 1.6 km/h 3.2 km/h 82 % 0 mm 0 W/m2
20:42 0.6 °C -2.1 °C 1019.2 hPa Calm   3.2 km/h 82 % 0 mm 0 W/m2
20:47 0.7 °C -2 °C 1019.2 hPa SSW 3.2 km/h 8 km/h 82 % 0 mm 0 W/m2
20:52 0.7 °C -2 °C 1018.8 hPa SSW 3.2 km/h 6.4 km/h 82 % 0 mm 0 W/m2
20:57 0.8 °C -1.9 °C 1018.8 hPa SSW 1.6 km/h 8 km/h 82 % 0 mm 0 W/m2
21:02 0.8 °C -1.9 °C 1018.8 hPa Calm   1.6 km/h 82 % 0 mm 0 W/m2
21:07 0.8 °C -1.9 °C 1018.8 hPa Calm   1.6 km/h 82 % 0 mm 0 W/m2
21:12 0.8 °C -1.9 °C 1018.8 hPa Calm     82 % 0 mm 0 W/m2
21:18 0.8 °C -1.9 °C 1018.8 hPa Calm     82 % 0 mm 0 W/m2
21:23 0.7 °C -2 °C 1018.8 hPa Calm     82 % 0 mm 0 W/m2
21:28 0.7 °C -1.8 °C 1018.8 hPa Calm     83 % 0 mm 0 W/m2
21:33 0.7 °C -1.8 °C 1018.8 hPa Calm     83 % 0 mm 0 W/m2
21:38 0.7 °C -1.8 °C 1018.8 hPa Calm     83 % 0 mm 0 W/m2
21:43 0.7 °C -1.7 °C 1018.8 hPa Calm     84 % 0 mm 0 W/m2
21:48 0.7 °C -1.7 °C 1018.5 hPa Calm     84 % 0 mm 0 W/m2
21:53 0.7 °C -1.7 °C 1018.5 hPa Calm     84 % 0 mm 0 W/m2
21:58 0.7 °C -1.7 °C 1018.5 hPa Calm     84 % 0 mm 0 W/m2
22:03 0.7 °C -1.7 °C 1018.5 hPa Calm     84 % 0 mm 0 W/m2
22:08 0.7 °C -1.7 °C 1018.5 hPa Calm     84 % 0 mm 0 W/m2
22:13 0.8 °C -1.6 °C 1018.5 hPa Calm     84 % 0 mm 0 W/m2
22:18 0.8 °C -1.6 °C 1018.5 hPa Calm     84 % 0 mm 0 W/m2
22:23 0.8 °C -1.6 °C 1018.5 hPa Calm     84 % 0 mm 0 W/m2
22:28 0.8 °C -1.6 °C 1018.5 hPa Calm     84 % 0 mm 0 W/m2
22:33 0.8 °C -1.6 °C 1018.5 hPa SSW 1.6 km/h 3.2 km/h 84 % 0 mm 0 W/m2
22:38 0.8 °C -1.6 °C 1018.5 hPa SSW 1.6 km/h 3.2 km/h 84 % 0 mm 0 W/m2
22:43 0.8 °C -1.4 °C 1018.2 hPa Calm   1.6 km/h 85 % 0 mm 0 W/m2
22:48 0.7 °C -1.6 °C 1018.2 hPa SSW 3.2 km/h 6.4 km/h 85 % 0 mm 0 W/m2
22:53 0.7 °C -1.6 °C 1018.2 hPa Calm     85 % 0 mm 0 W/m2
22:58 0.7 °C -1.6 °C 1018.2 hPa Calm   3.2 km/h 85 % 0 mm 0 W/m2
23:03 0.7 °C -1.6 °C 1018.2 hPa Calm     85 % 0 mm 0 W/m2
23:08 0.7 °C -1.6 °C 1018.2 hPa Calm     85 % 0 mm 0 W/m2
23:13 0.7 °C -1.6 °C 1018.2 hPa Calm     85 % 0 mm 0 W/m2
23:18 0.6 °C -1.6 °C 1018.2 hPa Calm     85 % 0 mm 0 W/m2
23:23 0.6 °C -1.6 °C 1018.2 hPa Calm     85 % 0 mm 0 W/m2
23:28 0.6 °C -1.6 °C 1018.2 hPa Calm     85 % 0 mm 0 W/m2
23:33 0.6 °C -1.5 °C 1018.2 hPa Calm     86 % 0 mm 0 W/m2
23:38 0.6 °C -1.5 °C 1018.2 hPa Calm     86 % 0 mm 0 W/m2
23:43 0.6 °C -1.5 °C 1018.2 hPa Calm     86 % 0 mm 0 W/m2
23:48 0.7 °C -1.4 °C 1017.8 hPa Calm   3.2 km/h 86 % 0 mm 0 W/m2
23:53 0.7 °C -1.4 °C 1017.8 hPa Calm     86 % 0 mm 0 W/m2
23:58 0.8 °C -1.3 °C 1018.2 hPa Calm     86 % 0 mm 0 W/m2
Delerius-Weather
Compliments of Weather Underground - 2.25 mb

Data updates at regular intervals.